sensor_id;sensor_type;location;lat;lon;timestamp;pressure;altitude;pressure_sealevel;temperature;humidity
62800;BME280;48842;51.046;13.796;2023-04-26T00:01:40;100230.88;;;9.26;nan
62800;BME280;48842;51.046;13.796;2023-04-26T00:04:05;100234.34;;;9.26;nan
62800;BME280;48842;51.046;13.796;2023-04-26T00:06:32;100248.28;;;9.29;nan
62800;BME280;48842;51.046;13.796;2023-04-26T00:08:58;100232.56;;;9.24;nan
62800;BME280;48842;51.046;13.796;2023-04-26T00:11:24;100240.44;;;9.25;nan
62800;BME280;48842;51.046;13.796;2023-04-26T00:13:49;100252.66;;;9.26;nan
62800;BME280;48842;51.046;13.796;2023-04-26T00:16:14;100245.66;;;9.25;nan
62800;BME280;48842;51.046;13.796;2023-04-26T00:18:40;100241.34;;;9.28;nan
62800;BME280;48842;51.046;13.796;2023-04-26T00:21:05;100242.19;;;9.28;nan
62800;BME280;48842;51.046;13.796;2023-04-26T00:23:31;100254.41;;;9.26;nan
62800;BME280;48842;51.046;13.796;2023-04-26T00:25:56;100249.16;;;9.23;nan
62800;BME280;48842;51.046;13.796;2023-04-26T00:28:21;100250.88;;;9.22;nan
62800;BME280;48842;51.046;13.796;2023-04-26T00:30:46;100252.63;;;9.23;nan
62800;BME280;48842;51.046;13.796;2023-04-26T00:33:13;100253.47;;;9.22;nan
62800;BME280;48842;51.046;13.796;2023-04-26T00:35:38;100250.84;;;9.19;nan
62800;BME280;48842;51.046;13.796;2023-04-26T00:38:04;100251.72;;;9.20;nan
62800;BME280;48842;51.046;13.796;2023-04-26T00:40:30;100251.72;;;9.20;nan
62800;BME280;48842;51.046;13.796;2023-04-26T00:42:57;100252.59;;;9.19;nan
62800;BME280;48842;51.046;13.796;2023-04-26T00:45:22;100259.53;;;9.17;nan
62800;BME280;48842;51.046;13.796;2023-04-26T00:47:47;100266.50;;;9.16;nan
62800;BME280;48842;51.046;13.796;2023-04-26T00:50:13;100265.63;;;9.13;nan
62800;BME280;48842;51.046;13.796;2023-04-26T00:52:38;100266.47;;;9.13;nan
62800;BME280;48842;51.046;13.796;2023-04-26T00:55:04;100269.09;;;9.15;nan
62800;BME280;48842;51.046;13.796;2023-04-26T00:57:30;100270.84;;;9.14;nan
62800;BME280;48842;51.046;13.796;2023-04-26T00:59:55;100271.69;;;9.10;nan
62800;BME280;48842;51.046;13.796;2023-04-26T01:02:21;100265.53;;;9.06;nan
62800;BME280;48842;51.046;13.796;2023-04-26T01:04:46;100259.44;;;9.03;nan
62800;BME280;48842;51.046;13.796;2023-04-26T01:07:15;100270.69;;;8.99;nan
62800;BME280;48842;51.046;13.796;2023-04-26T01:09:40;100275.88;;;8.94;nan
62800;BME280;48842;51.046;13.796;2023-04-26T01:12:06;100279.31;;;8.90;nan
62800;BME280;48842;51.046;13.796;2023-04-26T01:14:33;100281.88;;;8.82;nan
62800;BME280;48842;51.046;13.796;2023-04-26T01:17:02;100276.63;;;8.79;nan
62800;BME280;48842;51.046;13.796;2023-04-26T01:19:27;100284.44;;;8.78;nan
62800;BME280;48842;51.046;13.796;2023-04-26T01:21:53;100280.97;;;8.80;nan
62800;BME280;48842;51.046;13.796;2023-04-26T01:24:18;100276.59;;;8.78;nan
62800;BME280;48842;51.046;13.796;2023-04-26T01:26:43;100283.47;;;8.68;nan
62800;BME280;48842;51.046;13.796;2023-04-26T01:29:18;100275.63;;;8.68;nan
62800;BME280;48842;51.046;13.796;2023-04-26T01:31:45;100286.88;;;8.64;nan
62800;BME280;48842;51.046;13.796;2023-04-26T01:34:11;100281.63;;;8.61;nan
62800;BME280;48842;51.046;13.796;2023-04-26T01:36:36;100286.00;;;8.60;nan
62800;BME280;48842;51.046;13.796;2023-04-26T01:39:02;100290.31;;;8.60;nan
62800;BME280;48842;51.046;13.796;2023-04-26T01:41:27;100292.94;;;8.60;nan
62800;BME280;48842;51.046;13.796;2023-04-26T01:43:53;100286.84;;;8.58;nan
62800;BME280;48842;51.046;13.796;2023-04-26T01:46:19;100291.13;;;8.54;nan
62800;BME280;48842;51.046;13.796;2023-04-26T01:48:44;100289.41;;;8.53;nan
62800;BME280;48842;51.046;13.796;2023-04-26T01:51:10;100294.63;;;8.53;nan
62800;BME280;48842;51.046;13.796;2023-04-26T01:53:35;100298.06;;;8.50;nan
62800;BME280;48842;51.046;13.796;2023-04-26T01:56:01;100298.00;;;8.46;nan
62800;BME280;48842;51.046;13.796;2023-04-26T01:58:27;100291.91;;;8.45;nan
62800;BME280;48842;51.046;13.796;2023-04-26T02:00:53;100298.00;;;8.46;nan
62800;BME280;48842;51.046;13.796;2023-04-26T02:03:18;100302.34;;;8.45;nan
62800;BME280;48842;51.046;13.796;2023-04-26T02:05:43;100300.56;;;8.43;nan
62800;BME280;48842;51.046;13.796;2023-04-26T02:08:09;100304.81;;;8.36;nan
62800;BME280;48842;51.046;13.796;2023-04-26T02:10:34;100303.00;;;8.30;nan
62800;BME280;48842;51.046;13.796;2023-04-26T02:12:59;100302.09;;;8.27;nan
62800;BME280;48842;51.046;13.796;2023-04-26T02:15:24;100301.16;;;8.23;nan
62800;BME280;48842;51.046;13.796;2023-04-26T02:17:50;100300.28;;;8.21;nan
62800;BME280;48842;51.046;13.796;2023-04-26T02:20:17;100306.31;;;8.18;nan
62800;BME280;48842;51.046;13.796;2023-04-26T02:22:43;100314.16;;;8.18;nan
62800;BME280;48842;51.046;13.796;2023-04-26T02:25:08;100305.47;;;8.19;nan
62800;BME280;48842;51.046;13.796;2023-04-26T02:27:33;100307.28;;;8.24;nan
62800;BME280;48842;51.046;13.796;2023-04-26T02:29:59;100305.56;;;8.26;nan
62800;BME280;48842;51.046;13.796;2023-04-26T02:32:24;100297.72;;;8.26;nan
62800;BME280;48842;51.046;13.796;2023-04-26T02:34:49;100300.34;;;8.26;nan
62800;BME280;48842;51.046;13.796;2023-04-26T02:37:14;100297.72;;;8.24;nan
62800;BME280;48842;51.046;13.796;2023-04-26T02:39:40;100304.66;;;8.24;nan
62800;BME280;48842;51.046;13.796;2023-04-26T02:42:10;100301.16;;;8.23;nan
62800;BME280;48842;51.046;13.796;2023-04-26T02:44:36;100304.69;;;8.25;nan
62800;BME280;48842;51.046;13.796;2023-04-26T02:47:03;100302.97;;;8.29;nan
62800;BME280;48842;51.046;13.796;2023-04-26T02:49:29;100299.44;;;8.24;nan
62800;BME280;48842;51.046;13.796;2023-04-26T02:51:55;100298.53;;;8.21;nan
62800;BME280;48842;51.046;13.796;2023-04-26T02:54:20;100302.00;;;8.20;nan
62800;BME280;48842;51.046;13.796;2023-04-26T02:56:45;100295.94;;;8.21;nan
62800;BME280;48842;51.046;13.796;2023-04-26T02:59:11;100295.09;;;8.24;nan
62800;BME280;48842;51.046;13.796;2023-04-26T03:01:36;100295.13;;;8.26;nan
62800;BME280;48842;51.046;13.796;2023-04-26T03:04:01;100303.81;;;8.28;nan
62800;BME280;48842;51.046;13.796;2023-04-26T03:06:26;100302.97;;;8.27;nan
62800;BME280;48842;51.046;13.796;2023-04-26T03:08:52;100303.78;;;8.25;nan
62800;BME280;48842;51.046;13.796;2023-04-26T03:11:17;100304.66;;;8.24;nan
62800;BME280;48842;51.046;13.796;2023-04-26T03:13:43;100303.75;;;8.21;nan
62800;BME280;48842;51.046;13.796;2023-04-26T03:16:08;100309.00;;;8.23;nan
62800;BME280;48842;51.046;13.796;2023-04-26T03:18:33;100308.09;;;8.19;nan
62800;BME280;48842;51.046;13.796;2023-04-26T03:20:59;100311.50;;;8.15;nan
62800;BME280;48842;51.046;13.796;2023-04-26T03:23:24;100317.56;;;8.14;nan
62800;BME280;48842;51.046;13.796;2023-04-26T03:25:50;100316.66;;;8.11;nan
62800;BME280;48842;51.046;13.796;2023-04-26T03:28:16;100316.63;;;8.08;nan
62800;BME280;48842;51.046;13.796;2023-04-26T03:30:41;100319.22;;;8.06;nan
62800;BME280;48842;51.046;13.796;2023-04-26T03:33:06;100325.31;;;8.07;nan
62800;BME280;48842;51.046;13.796;2023-04-26T03:35:31;100314.84;;;8.03;nan
62800;BME280;48842;51.046;13.796;2023-04-26T03:37:57;100313.88;;;7.98;nan
62800;BME280;48842;51.046;13.796;2023-04-26T03:40:22;100320.78;;;7.95;nan
62800;BME280;48842;51.046;13.796;2023-04-26T03:42:47;100325.97;;;7.92;nan
62800;BME280;48842;51.046;13.796;2023-04-26T03:45:12;100321.56;;;7.88;nan
62800;BME280;48842;51.046;13.796;2023-04-26T03:47:38;100327.56;;;7.83;nan
62800;BME280;48842;51.046;13.796;2023-04-26T03:50:03;100325.84;;;7.84;nan
62800;BME280;48842;51.046;13.796;2023-04-26T03:52:29;100329.34;;;7.84;nan
62800;BME280;48842;51.046;13.796;2023-04-26T03:54:54;100330.16;;;7.82;nan
62800;BME280;48842;51.046;13.796;2023-04-26T03:57:20;100337.09;;;7.80;nan
62800;BME280;48842;51.046;13.796;2023-04-26T03:59:45;100337.97;;;7.80;nan
62800;BME280;48842;51.046;13.796;2023-04-26T04:02:10;100337.00;;;7.75;nan
62800;BME280;48842;51.046;13.796;2023-04-26T04:04:37;100346.50;;;7.70;nan
62800;BME280;48842;51.046;13.796;2023-04-26T04:07:02;100340.31;;;7.63;nan
62800;BME280;48842;51.046;13.796;2023-04-26T04:09:27;100342.88;;;7.62;nan
62800;BME280;48842;51.046;13.796;2023-04-26T04:11:53;100348.00;;;7.56;nan
62800;BME280;48842;51.046;13.796;2023-04-26T04:14:18;100350.59;;;7.54;nan
62800;BME280;48842;51.046;13.796;2023-04-26T04:16:44;100350.66;;;7.59;nan
62800;BME280;48842;51.046;13.796;2023-04-26T04:19:09;100350.66;;;7.59;nan
62800;BME280;48842;51.046;13.796;2023-04-26T04:21:34;100354.09;;;7.56;nan
62800;BME280;48842;51.046;13.796;2023-04-26T04:23:59;100347.97;;;7.54;nan
62800;BME280;48842;51.046;13.796;2023-04-26T04:26:25;100347.97;;;7.54;nan
62800;BME280;48842;51.046;13.796;2023-04-26T04:28:52;100358.44;;;7.57;nan
62800;BME280;48842;51.046;13.796;2023-04-26T04:31:19;100364.56;;;7.59;nan
62800;BME280;48842;51.046;13.796;2023-04-26T04:33:44;100358.53;;;7.63;nan
62800;BME280;48842;51.046;13.796;2023-04-26T04:36:09;100359.50;;;7.67;nan
62800;BME280;48842;51.046;13.796;2023-04-26T04:38:35;100358.63;;;7.68;nan
62800;BME280;48842;51.046;13.796;2023-04-26T04:41:00;100366.56;;;7.74;nan
62800;BME280;48842;51.046;13.796;2023-04-26T04:43:26;100367.44;;;7.76;nan
62800;BME280;48842;51.046;13.796;2023-04-26T04:45:51;100368.38;;;7.80;nan
62800;BME280;48842;51.046;13.796;2023-04-26T04:48:17;100366.59;;;7.76;nan
62800;BME280;48842;51.046;13.796;2023-04-26T04:50:44;100370.03;;;7.75;nan
62800;BME280;48842;51.046;13.796;2023-04-26T04:53:09;100365.66;;;7.74;nan
62800;BME280;48842;51.046;13.796;2023-04-26T04:55:36;100373.47;;;7.72;nan
62800;BME280;48842;51.046;13.796;2023-04-26T04:58:02;100370.84;;;7.71;nan
62800;BME280;48842;51.046;13.796;2023-04-26T05:00:28;100372.56;;;7.70;nan
62800;BME280;48842;51.046;13.796;2023-04-26T05:02:54;100374.31;;;7.69;nan
62800;BME280;48842;51.046;13.796;2023-04-26T05:05:20;100378.66;;;7.71;nan
62800;BME280;48842;51.046;13.796;2023-04-26T05:07:45;100377.78;;;7.70;nan
62800;BME280;48842;51.046;13.796;2023-04-26T05:10:11;100381.22;;;7.69;nan
62800;BME280;48842;51.046;13.796;2023-04-26T05:12:36;100378.69;;;7.72;nan
62800;BME280;48842;51.046;13.796;2023-04-26T05:15:02;100382.19;;;7.74;nan
62800;BME280;48842;51.046;13.796;2023-04-26T05:17:28;100388.19;;;7.68;nan
62800;BME280;48842;51.046;13.796;2023-04-26T05:19:56;100389.91;;;7.68;nan
62800;BME280;48842;51.046;13.796;2023-04-26T05:22:21;100389.97;;;7.69;nan
62800;BME280;48842;51.046;13.796;2023-04-26T05:24:47;100389.09;;;7.71;nan
62800;BME280;48842;51.046;13.796;2023-04-26T05:27:13;100402.03;;;7.66;nan
62800;BME280;48842;51.046;13.796;2023-04-26T05:29:38;100391.53;;;7.60;nan
62800;BME280;48842;51.046;13.796;2023-04-26T05:32:04;100389.81;;;7.62;nan
62800;BME280;48842;51.046;13.796;2023-04-26T05:34:29;100401.16;;;7.64;nan
62800;BME280;48842;51.046;13.796;2023-04-26T05:36:54;100402.03;;;7.66;nan
62800;BME280;48842;51.046;13.796;2023-04-26T05:39:20;100393.38;;;7.67;nan
62800;BME280;48842;51.046;13.796;2023-04-26T05:41:45;100406.47;;;7.70;nan
62800;BME280;48842;51.046;13.796;2023-04-26T05:44:12;100404.72;;;7.71;nan
62800;BME280;48842;51.046;13.796;2023-04-26T05:46:37;100410.13;;;7.81;nan
62800;BME280;48842;51.046;13.796;2023-04-26T05:49:03;100411.13;;;7.90;nan
62800;BME280;48842;51.046;13.796;2023-04-26T05:51:28;100413.00;;;8.00;nan
62800;BME280;48842;51.046;13.796;2023-04-26T05:53:53;100420.19;;;8.13;nan
62800;BME280;48842;51.046;13.796;2023-04-26T05:56:18;100413.34;;;8.21;nan
62800;BME280;48842;51.046;13.796;2023-04-26T05:58:43;100411.72;;;8.30;nan
62800;BME280;48842;51.046;13.796;2023-04-26T06:01:10;100411.84;;;8.39;nan
62800;BME280;48842;51.046;13.796;2023-04-26T06:03:36;100413.66;;;8.43;nan
62800;BME280;48842;51.046;13.796;2023-04-26T06:06:02;100412.94;;;8.52;nan
62800;BME280;48842;51.046;13.796;2023-04-26T06:08:28;100413.06;;;8.63;nan
62800;BME280;48842;51.046;13.796;2023-04-26T06:10:53;100421.88;;;8.69;nan
62800;BME280;48842;51.046;13.796;2023-04-26T06:13:18;100421.78;;;8.62;nan
62800;BME280;48842;51.046;13.796;2023-04-26T06:15:43;100424.44;;;8.65;nan
62800;BME280;48842;51.046;13.796;2023-04-26T06:18:09;100420.09;;;8.67;nan
62800;BME280;48842;51.046;13.796;2023-04-26T06:20:34;100417.41;;;8.61;nan
62800;BME280;48842;51.046;13.796;2023-04-26T06:23:00;100413.94;;;8.62;nan
62800;BME280;48842;51.046;13.796;2023-04-26T06:25:25;100412.25;;;8.67;nan
62800;BME280;48842;51.046;13.796;2023-04-26T06:27:50;100417.56;;;8.73;nan
62800;BME280;48842;51.046;13.796;2023-04-26T06:30:16;100426.28;;;8.75;nan
62800;BME280;48842;51.046;13.796;2023-04-26T06:32:41;100416.78;;;8.80;nan
62800;BME280;48842;51.046;13.796;2023-04-26T06:35:07;100423.78;;;8.84;nan
62800;BME280;48842;51.046;13.796;2023-04-26T06:37:32;100422.97;;;8.87;nan
62800;BME280;48842;51.046;13.796;2023-04-26T06:39:57;100420.34;;;8.85;nan
62800;BME280;48842;51.046;13.796;2023-04-26T06:42:22;100426.41;;;8.84;nan
62800;BME280;48842;51.046;13.796;2023-04-26T06:44:48;100432.53;;;8.86;nan
62800;BME280;48842;51.046;13.796;2023-04-26T06:47:13;100423.81;;;8.86;nan
62800;BME280;48842;51.046;13.796;2023-04-26T06:49:38;100428.97;;;8.81;nan
62800;BME280;48842;51.046;13.796;2023-04-26T06:52:04;100430.69;;;8.78;nan
62800;BME280;48842;51.046;13.796;2023-04-26T06:54:31;100428.97;;;8.81;nan
62800;BME280;48842;51.046;13.796;2023-04-26T06:56:56;100431.63;;;8.84;nan
62800;BME280;48842;51.046;13.796;2023-04-26T06:59:21;100434.31;;;8.92;nan
62800;BME280;48842;51.046;13.796;2023-04-26T07:01:47;100438.78;;;8.99;nan
62800;BME280;48842;51.046;13.796;2023-04-26T07:04:12;100438.72;;;8.96;nan
62800;BME280;48842;51.046;13.796;2023-04-26T07:06:39;100430.84;;;8.91;nan
62800;BME280;48842;51.046;13.796;2023-04-26T07:09:04;100432.63;;;8.94;nan
62800;BME280;48842;51.046;13.796;2023-04-26T07:11:30;100438.88;;;9.07;nan
62800;BME280;48842;51.046;13.796;2023-04-26T07:13:55;100439.84;;;9.18;nan
62800;BME280;48842;51.046;13.796;2023-04-26T07:16:20;100438.91;;;9.10;nan
62800;BME280;48842;51.046;13.796;2023-04-26T07:18:46;100442.34;;;9.06;nan
62800;BME280;48842;51.046;13.796;2023-04-26T07:21:12;100438.72;;;8.95;nan
62800;BME280;48842;51.046;13.796;2023-04-26T07:23:38;100449.06;;;8.85;nan
62800;BME280;48842;51.046;13.796;2023-04-26T07:26:03;100435.25;;;8.94;nan
62800;BME280;48842;51.046;13.796;2023-04-26T07:28:29;100443.06;;;8.94;nan
62800;BME280;48842;51.046;13.796;2023-04-26T07:30:54;100442.31;;;9.03;nan
62800;BME280;48842;51.046;13.796;2023-04-26T07:33:20;100445.06;;;9.17;nan
62800;BME280;48842;51.046;13.796;2023-04-26T07:35:52;100441.69;;;9.27;nan
62800;BME280;48842;51.046;13.796;2023-04-26T07:38:18;100441.84;;;9.41;nan
62800;BME280;48842;51.046;13.796;2023-04-26T07:40:43;100438.47;;;9.51;nan
62800;BME280;48842;51.046;13.796;2023-04-26T07:43:08;100435.91;;;9.57;nan
62800;BME280;48842;51.046;13.796;2023-04-26T07:45:34;100428.81;;;9.46;nan
62800;BME280;48842;51.046;13.796;2023-04-26T07:47:59;100441.03;;;9.45;nan
62800;BME280;48842;51.046;13.796;2023-04-26T07:50:24;100443.66;;;9.47;nan
62800;BME280;48842;51.046;13.796;2023-04-26T07:52:50;100442.75;;;9.46;nan
62800;BME280;48842;51.046;13.796;2023-04-26T07:55:15;100431.59;;;9.59;nan
62800;BME280;48842;51.046;13.796;2023-04-26T07:57:40;100432.53;;;9.71;nan
62800;BME280;48842;51.046;13.796;2023-04-26T08:00:06;100426.50;;;9.76;nan
62800;BME280;48842;51.046;13.796;2023-04-26T08:02:34;100440.34;;;9.68;nan
62800;BME280;48842;51.046;13.796;2023-04-26T08:05:00;100435.97;;;9.64;nan
62800;BME280;48842;51.046;13.796;2023-04-26T08:07:25;100429.00;;;9.63;nan
62800;BME280;48842;51.046;13.796;2023-04-26T08:09:50;100434.31;;;9.72;nan
62800;BME280;48842;51.046;13.796;2023-04-26T08:12:16;100430.88;;;9.79;nan
62800;BME280;48842;51.046;13.796;2023-04-26T08:14:41;100445.75;;;9.86;nan
62800;BME280;48842;51.046;13.796;2023-04-26T08:17:07;100435.13;;;9.66;nan
62800;BME280;48842;51.046;13.796;2023-04-26T08:19:34;100441.28;;;9.73;nan
62800;BME280;48842;51.046;13.796;2023-04-26T08:21:59;100449.25;;;9.85;nan
62800;BME280;48842;51.046;13.796;2023-04-26T08:24:24;100441.44;;;9.91;nan
62800;BME280;48842;51.046;13.796;2023-04-26T08:26:49;100443.06;;;9.74;nan
62800;BME280;48842;51.046;13.796;2023-04-26T08:29:15;100452.59;;;9.70;nan
62800;BME280;48842;51.046;13.796;2023-04-26T08:31:40;100449.22;;;9.84;nan
62800;BME280;48842;51.046;13.796;2023-04-26T08:34:06;100439.75;;;9.96;nan
62800;BME280;48842;51.046;13.796;2023-04-26T08:36:38;100446.56;;;9.79;nan
62800;BME280;48842;51.046;13.796;2023-04-26T08:39:04;100444.81;;;9.78;nan
62800;BME280;48842;51.046;13.796;2023-04-26T08:41:34;100456.16;;;9.78;nan
62800;BME280;48842;51.046;13.796;2023-04-26T08:44:00;100441.38;;;9.82;nan
62800;BME280;48842;51.046;13.796;2023-04-26T08:46:46;100449.25;;;9.88;nan
62800;BME280;48842;51.046;13.796;2023-04-26T08:49:42;100446.66;;;9.91;nan
62800;BME280;48842;51.046;13.796;2023-04-26T08:52:10;100443.19;;;9.89;nan
62800;BME280;48842;51.046;13.796;2023-04-26T08:54:36;100438.78;;;9.88;nan
62800;BME280;48842;51.046;13.796;2023-04-26T08:57:02;100435.34;;;9.94;nan
62800;BME280;48842;51.046;13.796;2023-04-26T08:59:29;100438.91;;;10.01;nan
62800;BME280;48842;51.046;13.796;2023-04-26T09:01:55;100429.47;;;10.21;nan
62800;BME280;48842;51.046;13.796;2023-04-26T09:04:21;100433.88;;;10.31;nan
62800;BME280;48842;51.046;13.796;2023-04-26T09:06:47;100437.47;;;10.37;nan
62800;BME280;48842;51.046;13.796;2023-04-26T09:09:17;100433.13;;;10.42;nan
62800;BME280;48842;51.046;13.796;2023-04-26T09:11:56;100431.41;;;10.47;nan
62800;BME280;48842;51.046;13.796;2023-04-26T09:14:22;100439.25;;;10.45;nan
62800;BME280;48842;51.046;13.796;2023-04-26T09:16:48;100440.97;;;10.43;nan
62800;BME280;48842;51.046;13.796;2023-04-26T09:19:13;100440.13;;;10.44;nan
62800;BME280;48842;51.046;13.796;2023-04-26T09:21:43;100443.59;;;10.45;nan
62800;BME280;48842;51.046;13.796;2023-04-26T09:24:09;100439.28;;;10.47;nan
62800;BME280;48842;51.046;13.796;2023-04-26T09:26:34;100461.09;;;10.51;nan
62800;BME280;48842;51.046;13.796;2023-04-26T09:29:18;100447.22;;;10.65;nan
62800;BME280;48842;51.046;13.796;2023-04-26T09:31:46;100445.50;;;10.71;nan
62800;BME280;48842;51.046;13.796;2023-04-26T09:34:12;100432.41;;;10.74;nan
62800;BME280;48842;51.046;13.796;2023-04-26T09:36:54;100444.66;;;10.75;nan
62800;BME280;48842;51.046;13.796;2023-04-26T09:39:36;100441.13;;;10.74;nan
62800;BME280;48842;51.046;13.796;2023-04-26T09:42:09;100435.03;;;10.71;nan
62800;BME280;48842;51.046;13.796;2023-04-26T09:44:35;100437.63;;;10.68;nan
62800;BME280;48842;51.046;13.796;2023-04-26T09:47:04;100441.13;;;10.73;nan
62800;BME280;48842;51.046;13.796;2023-04-26T09:49:32;100442.91;;;10.78;nan
62800;BME280;48842;51.046;13.796;2023-04-26T09:52:03;100442.09;;;10.90;nan
62800;BME280;48842;51.046;13.796;2023-04-26T09:54:51;100455.19;;;10.89;nan
62800;BME280;48842;51.046;13.796;2023-04-26T09:57:18;100457.75;;;10.75;nan
62800;BME280;48842;51.046;13.796;2023-04-26T09:59:46;100443.72;;;10.63;nan
62800;BME280;48842;51.046;13.796;2023-04-26T10:02:26;100448.97;;;10.63;nan
62800;BME280;48842;51.046;13.796;2023-04-26T10:04:53;100446.31;;;10.60;nan
62800;BME280;48842;51.046;13.796;2023-04-26T10:07:22;100438.53;;;10.79;nan
62800;BME280;48842;51.046;13.796;2023-04-26T10:09:48;100435.06;;;10.81;nan
62800;BME280;48842;51.046;13.796;2023-04-26T10:12:16;100435.16;;;10.98;nan
62800;BME280;48842;51.046;13.796;2023-04-26T10:14:43;100439.56;;;11.13;nan
62800;BME280;48842;51.046;13.796;2023-04-26T10:17:09;100425.59;;;11.17;nan
62800;BME280;48842;51.046;13.796;2023-04-26T10:19:36;100429.97;;;11.22;nan
62800;BME280;48842;51.046;13.796;2023-04-26T10:22:12;100437.78;;;11.09;nan
62800;BME280;48842;51.046;13.796;2023-04-26T10:24:42;100426.44;;;11.06;nan
62800;BME280;48842;51.046;13.796;2023-04-26T10:27:08;100432.53;;;11.00;nan
62800;BME280;48842;51.046;13.796;2023-04-26T10:32:21;100449.91;;;10.79;nan
62800;BME280;48842;51.046;13.796;2023-04-26T10:35:28;100453.28;;;10.57;nan
62800;BME280;48842;51.046;13.796;2023-04-26T10:40:34;100447.22;;;10.72;nan
62800;BME280;48842;51.046;13.796;2023-04-26T10:45:32;100443.00;;;11.00;nan
62800;BME280;48842;51.046;13.796;2023-04-26T10:48:17;100447.44;;;11.15;nan
62800;BME280;48842;51.046;13.796;2023-04-26T10:59:09;100434.44;;;11.81;nan
62800;BME280;48842;51.046;13.796;2023-04-26T11:01:35;100427.44;;;11.90;nan
62800;BME280;48842;51.046;13.796;2023-04-26T11:04:08;100424.81;;;11.91;nan
62800;BME280;48842;51.046;13.796;2023-04-26T11:06:54;100426.56;;;11.67;nan
62800;BME280;48842;51.046;13.796;2023-04-26T11:09:47;100427.41;;;11.59;nan
62800;BME280;48842;51.046;13.796;2023-04-26T11:12:14;100430.84;;;11.27;nan
62800;BME280;48842;51.046;13.796;2023-04-26T11:14:44;100427.31;;;11.15;nan
62800;BME280;48842;51.046;13.796;2023-04-26T11:17:10;100438.69;;;11.19;nan
62800;BME280;48842;51.046;13.796;2023-04-26T11:19:36;100435.22;;;11.20;nan
62800;BME280;48842;51.046;13.796;2023-04-26T11:22:02;100440.47;;;11.23;nan
62800;BME280;48842;51.046;13.796;2023-04-26T11:24:30;100437.84;;;11.32;nan
62800;BME280;48842;51.046;13.796;2023-04-26T11:26:57;100428.28;;;11.44;nan
62800;BME280;48842;51.046;13.796;2023-04-26T11:29:23;100434.38;;;11.50;nan
62800;BME280;48842;51.046;13.796;2023-04-26T11:31:53;100439.63;;;11.41;nan
62800;BME280;48842;51.046;13.796;2023-04-26T11:34:29;100432.66;;;11.51;nan
62800;BME280;48842;51.046;13.796;2023-04-26T11:36:55;100441.38;;;11.41;nan
62800;BME280;48842;51.046;13.796;2023-04-26T11:39:20;100437.03;;;11.61;nan
62800;BME280;48842;51.046;13.796;2023-04-26T11:41:46;100430.94;;;11.76;nan
62800;BME280;48842;51.046;13.796;2023-04-26T11:44:11;100436.16;;;11.87;nan
62800;BME280;48842;51.046;13.796;2023-04-26T11:46:37;100431.81;;;11.66;nan
62800;BME280;48842;51.046;13.796;2023-04-26T11:49:02;100432.69;;;11.73;nan
62800;BME280;48842;51.046;13.796;2023-04-26T11:51:27;100430.94;;;11.72;nan
62800;BME280;48842;51.046;13.796;2023-04-26T11:53:54;100440.56;;;11.77;nan
62800;BME280;48842;51.046;13.796;2023-04-26T11:56:20;100448.44;;;11.73;nan
62800;BME280;48842;51.046;13.796;2023-04-26T11:58:47;100453.66;;;11.65;nan
62800;BME280;48842;51.046;13.796;2023-04-26T12:01:19;100451.91;;;11.59;nan
62800;BME280;48842;51.046;13.796;2023-04-26T12:03:49;100454.50;;;11.58;nan
62800;BME280;48842;51.046;13.796;2023-04-26T12:06:14;100458.00;;;11.46;nan
62800;BME280;48842;51.046;13.796;2023-04-26T12:08:39;100471.09;;;11.44;nan
62800;BME280;48842;51.046;13.796;2023-04-26T12:11:05;100472.00;;;11.45;nan
62800;BME280;48842;51.046;13.796;2023-04-26T12:13:30;100475.50;;;11.42;nan
62800;BME280;48842;51.046;13.796;2023-04-26T12:15:56;100470.25;;;11.56;nan
62800;BME280;48842;51.046;13.796;2023-04-26T12:18:28;100458.06;;;11.80;nan
62800;BME280;48842;51.046;13.796;2023-04-26T12:20:57;100460.69;;;12.06;nan
62800;BME280;48842;51.046;13.796;2023-04-26T12:23:23;100452.81;;;12.23;nan
62800;BME280;48842;51.046;13.796;2023-04-26T12:25:56;100465.06;;;12.36;nan
62800;BME280;48842;51.046;13.796;2023-04-26T12:28:24;100454.53;;;12.39;nan
62800;BME280;48842;51.046;13.796;2023-04-26T12:30:50;100444.03;;;12.39;nan
62800;BME280;48842;51.046;13.796;2023-04-26T12:33:15;100457.19;;;12.43;nan
62800;BME280;48842;51.046;13.796;2023-04-26T12:35:43;100451.03;;;12.42;nan
62800;BME280;48842;51.046;13.796;2023-04-26T12:38:09;100451.06;;;12.34;nan
62800;BME280;48842;51.046;13.796;2023-04-26T12:40:35;100450.19;;;12.31;nan
62800;BME280;48842;51.046;13.796;2023-04-26T12:43:00;100447.56;;;12.21;nan
62800;BME280;48842;51.046;13.796;2023-04-26T12:45:26;100442.31;;;12.32;nan
62800;BME280;48842;51.046;13.796;2023-04-26T12:47:52;100447.56;;;12.42;nan
62800;BME280;48842;51.046;13.796;2023-04-26T12:50:18;100449.25;;;12.61;nan
62800;BME280;48842;51.046;13.796;2023-04-26T12:52:43;100437.81;;;12.79;nan
62800;BME280;48842;51.046;13.796;2023-04-26T12:55:11;100440.38;;;12.95;nan
62800;BME280;48842;51.046;13.796;2023-04-26T12:57:38;100450.88;;;13.05;nan
62800;BME280;48842;51.046;13.796;2023-04-26T13:00:04;100437.72;;;13.01;nan
62800;BME280;48842;51.046;13.796;2023-04-26T13:02:30;100438.66;;;12.87;nan
62800;BME280;48842;51.046;13.796;2023-04-26T13:04:56;100440.44;;;12.81;nan
62800;BME280;48842;51.046;13.796;2023-04-26T13:07:21;100445.72;;;12.71;nan
62800;BME280;48842;51.046;13.796;2023-04-26T13:09:47;100449.31;;;12.46;nan
62800;BME280;48842;51.046;13.796;2023-04-26T13:12:13;100446.69;;;12.44;nan
62800;BME280;48842;51.046;13.796;2023-04-26T13:14:39;100448.44;;;12.19;nan
62800;BME280;48842;51.046;13.796;2023-04-26T13:17:05;100444.09;;;12.05;nan
62800;BME280;48842;51.046;13.796;2023-04-26T13:19:32;100443.22;;;12.08;nan
62800;BME280;48842;51.046;13.796;2023-04-26T13:21:58;100449.34;;;11.93;nan